Time;durP1;ratioP1;P1;durP2;ratioP2;P2;SDS_P1;SDS_P2;PMS_P1;PMS_P2;Temp;Humidity;BMP_temperature;BMP_pressure;BME280_temperature;BME280_humidity;BME280_pressure;Samples;Min_cycle;Max_cycle;Signal;HPM_P1;HPM_P2
2021/12/23 00:01:41;;;;;;;39.72;21.48;;;;;;;;;;5053429;28;20400;-55
2021/12/23 00:04:09;;;;;;;39.92;20.38;;;;;;;;;;5055335;28;20037;-58
2021/12/23 00:06:34;;;;;;;37.10;19.63;;;;;;;;;;5054004;28;20041;-54
2021/12/23 00:09:00;;;;;;;37.10;21.02;;;;;;;;;;5053355;28;20068;-59
2021/12/23 00:11:28;;;;;;;37.13;21.17;;;;;;;;;;5052633;28;20048;-54
2021/12/23 00:14:03;;;;;;;34.75;20.30;;;;;;;;;;5054086;28;20040;-53
2021/12/23 00:19:17;;;;;;;39.60;21.15;;;;;;;;;;5053708;28;20064;-56
2021/12/23 00:24:29;;;;;;;;;;;;;;;;;;5027543;28;20125;-51
2021/12/23 00:26:55;;;;;;;39.40;20.20;;;;;;;;;;5053420;28;19924;-57
2021/12/23 00:29:20;;;;;;;35.38;20.50;;;;;;;;;;5052770;28;20129;-55
2021/12/23 00:31:46;;;;;;;34.97;20.17;;;;;;;;;;5053332;28;20041;-53
2021/12/23 00:34:12;;;;;;;38.63;20.77;;;;;;;;;;5054935;28;20079;-54
2021/12/23 00:36:41;;;;;;;37.28;21.00;;;;;;;;;;5053804;28;20110;-52
2021/12/23 00:39:08;;;;;;;35.42;21.63;;;;;;;;;;5052767;28;20486;-55
2021/12/23 00:41:33;;;;;;;39.63;22.02;;;;;;;;;;5052685;28;20041;-56
2021/12/23 00:44:00;;;;;;;42.58;22.08;;;;;;;;;;5054162;28;20080;-57
2021/12/23 00:46:26;;;;;;;39.95;21.60;;;;;;;;;;5052183;28;20524;-55
2021/12/23 00:48:51;;;;;;;36.95;20.58;;;;;;;;;;5054979;28;20044;-53
2021/12/23 00:51:19;;;;;;;49.97;21.65;;;;;;;;;;5052210;28;20072;-54
2021/12/23 00:53:48;;;;;;;38.78;20.75;;;;;;;;;;5054264;28;20033;-57
2021/12/23 00:56:14;;;;;;;35.28;20.73;;;;;;;;;;5054938;28;20852;-53
2021/12/23 00:58:40;;;;;;;39.92;21.38;;;;;;;;;;5052139;28;20036;-52
2021/12/23 01:01:06;;;;;;;35.83;20.77;;;;;;;;;;5053585;28;20037;-50
2021/12/23 01:03:32;;;;;;;35.25;20.35;;;;;;;;;;5049578;28;20608;-54
2021/12/23 01:05:58;;;;;;;36.70;20.70;;;;;;;;;;5051961;28;20116;-53
2021/12/23 01:08:24;;;;;;;37.40;20.35;;;;;;;;;;5050985;28;20477;-52
2021/12/23 01:10:55;;;;;;;40.58;21.63;;;;;;;;;;5055032;28;20420;-55
2021/12/23 01:13:25;;;;;;;38.47;21.52;;;;;;;;;;5051375;28;20411;-55
2021/12/23 01:16:03;;;;;;;39.45;21.15;;;;;;;;;;5052829;28;20570;-55
2021/12/23 01:18:33;;;;;;;43.25;22.95;;;;;;;;;;5051176;28;20055;-55
2021/12/23 01:21:04;;;;;;;40.45;22.42;;;;;;;;;;5052317;28;20672;-54
2021/12/23 01:23:34;;;;;;;40.13;22.50;;;;;;;;;;5051426;28;20072;-54
2021/12/23 01:25:59;;;;;;;40.67;21.83;;;;;;;;;;5050937;28;20037;-56
2021/12/23 01:28:26;;;;;;;40.10;22.42;;;;;;;;;;5050990;28;20140;-58
2021/12/23 01:30:52;;;;;;;38.15;22.08;;;;;;;;;;5054522;28;20087;-55
2021/12/23 01:33:18;;;;;;;44.03;21.80;;;;;;;;;;5049221;28;20037;-52
2021/12/23 01:35:49;;;;;;;44.30;22.50;;;;;;;;;;5053332;28;20033;-55
2021/12/23 01:38:15;;;;;;;35.45;20.75;;;;;;;;;;5051423;28;20775;-56
2021/12/23 01:40:41;;;;;;;37.80;21.45;;;;;;;;;;5052518;28;20037;-55
2021/12/23 01:43:07;;;;;;;45.67;22.45;;;;;;;;;;5053154;28;20045;-53
2021/12/23 01:45:34;;;;;;;41.03;21.48;;;;;;;;;;5051833;28;20436;-57
2021/12/23 01:48:01;;;;;;;41.58;21.75;;;;;;;;;;5053896;28;20033;-57
2021/12/23 01:50:28;;;;;;;41.55;22.20;;;;;;;;;;5051877;28;20037;-61
2021/12/23 01:52:55;;;;;;;44.72;22.95;;;;;;;;;;5053288;28;20090;-56
2021/12/23 01:55:21;;;;;;;44.45;23.13;;;;;;;;;;5051721;28;20037;-56
2021/12/23 01:57:49;;;;;;;40.85;22.25;;;;;;;;;;5052532;28;20447;-58
2021/12/23 02:00:18;;;;;;;42.25;22.02;;;;;;;;;;5052521;28;20041;-53
2021/12/23 02:02:43;;;;;;;42.85;23.23;;;;;;;;;;5052091;28;20052;-59
2021/12/23 02:05:10;;;;;;;44.08;23.45;;;;;;;;;;5053523;28;20325;-54
2021/12/23 02:07:36;;;;;;;46.05;23.15;;;;;;;;;;5051257;28;20126;-53
2021/12/23 02:10:02;;;;;;;41.55;22.42;;;;;;;;;;5055508;28;20036;-57
2021/12/23 02:12:28;;;;;;;42.63;22.90;;;;;;;;;;5055465;28;20052;-56
2021/12/23 02:14:54;;;;;;;43.63;23.58;;;;;;;;;;5056339;28;20029;-54
2021/12/23 02:17:19;;;;;;;40.90;22.27;;;;;;;;;;5056097;28;20052;-57
2021/12/23 02:19:45;;;;;;;41.45;23.23;;;;;;;;;;5056205;28;20043;-56
2021/12/23 02:22:11;;;;;;;42.15;23.55;;;;;;;;;;5054981;28;20041;-57
2021/12/23 02:24:37;;;;;;;41.75;22.23;;;;;;;;;;5055301;28;20137;-55
2021/12/23 02:27:04;;;;;;;44.88;24.35;;;;;;;;;;5057548;28;20041;-58
2021/12/23 02:29:29;;;;;;;47.38;24.77;;;;;;;;;;5054393;28;20041;-56
2021/12/23 02:31:55;;;;;;;40.90;23.52;;;;;;;;;;5057719;28;20047;-57
2021/12/23 02:34:21;;;;;;;43.47;22.48;;;;;;;;;;5054060;28;20562;-55
2021/12/23 02:36:56;;;;;;;47.45;23.63;;;;;;;;;;5051695;28;20040;-55
2021/12/23 02:39:23;;;;;;;42.53;23.13;;;;;;;;;;5050752;28;20041;-58
2021/12/23 02:41:50;;;;;;;46.20;24.17;;;;;;;;;;5056919;28;20041;-57
2021/12/23 02:44:16;;;;;;;46.50;23.70;;;;;;;;;;5053740;28;20505;-52
2021/12/23 02:46:42;;;;;;;44.88;22.45;;;;;;;;;;5054526;28;20044;-56
2021/12/23 02:49:08;;;;;;;40.35;22.65;;;;;;;;;;5055443;28;20561;-49
2021/12/23 02:51:34;;;;;;;43.90;22.73;;;;;;;;;;5054115;28;20033;-52
2021/12/23 02:54:00;;;;;;;42.55;23.10;;;;;;;;;;5057424;28;20037;-58
2021/12/23 02:56:25;;;;;;;45.85;23.27;;;;;;;;;;5053694;28;20073;-52
2021/12/23 02:58:51;;;;;;;45.15;23.42;;;;;;;;;;5052289;28;20124;-54
2021/12/23 03:01:18;;;;;;;45.10;22.75;;;;;;;;;;5053750;28;20441;-49
2021/12/23 03:03:44;;;;;;;44.55;22.98;;;;;;;;;;5049802;28;20048;-51
2021/12/23 03:06:11;;;;;;;47.95;24.55;;;;;;;;;;5055547;28;20071;-53
2021/12/23 03:08:42;;;;;;;48.50;23.52;;;;;;;;;;5052671;28;20563;-58
2021/12/23 03:11:11;;;;;;;43.75;24.63;;;;;;;;;;5054568;28;20032;-54
2021/12/23 03:13:37;;;;;;;42.20;23.70;;;;;;;;;;5054732;28;20522;-52
2021/12/23 03:16:04;;;;;;;46.25;24.10;;;;;;;;;;5055096;28;20451;-55
2021/12/23 03:18:30;;;;;;;46.55;23.92;;;;;;;;;;5053316;28;20051;-51
2021/12/23 03:20:56;;;;;;;50.35;24.40;;;;;;;;;;5056119;28;20032;-57
2021/12/23 03:23:23;;;;;;;44.42;22.88;;;;;;;;;;5053770;28;20043;-58
2021/12/23 03:25:49;;;;;;;45.92;25.20;;;;;;;;;;5056138;28;20051;-55
2021/12/23 03:28:15;;;;;;;42.63;23.55;;;;;;;;;;5053067;28;20040;-51
2021/12/23 03:30:40;;;;;;;40.95;22.80;;;;;;;;;;5054446;28;20045;-57
2021/12/23 03:33:06;;;;;;;42.28;23.55;;;;;;;;;;5055362;28;20047;-55
2021/12/23 03:35:33;;;;;;;45.90;24.35;;;;;;;;;;5053563;28;20036;-56
2021/12/23 03:37:58;;;;;;;46.03;24.02;;;;;;;;;;5055661;28;20033;-49
2021/12/23 03:40:25;;;;;;;43.65;23.73;;;;;;;;;;5053458;28;20048;-53
2021/12/23 03:42:50;;;;;;;46.80;24.10;;;;;;;;;;5055760;28;20036;-55
2021/12/23 03:45:16;;;;;;;45.83;23.33;;;;;;;;;;5056390;28;20069;-56
2021/12/23 03:47:43;;;;;;;42.95;22.70;;;;;;;;;;5053474;28;20110;-53
2021/12/23 03:50:08;;;;;;;43.25;23.52;;;;;;;;;;5054835;28;20037;-56
2021/12/23 03:52:35;;;;;;;46.92;23.80;;;;;;;;;;5053928;28;20043;-54
2021/12/23 03:55:01;;;;;;;43.95;24.23;;;;;;;;;;5056319;28;20396;-53
2021/12/23 03:57:27;;;;;;;43.53;23.20;;;;;;;;;;5052814;28;20043;-57
2021/12/23 03:59:52;;;;;;;40.65;22.65;;;;;;;;;;5054469;28;20415;-56
2021/12/23 04:02:18;;;;;;;45.83;23.85;;;;;;;;;;5054050;28;20112;-55
2021/12/23 04:04:44;;;;;;;42.58;24.58;;;;;;;;;;5051934;28;20496;-54
2021/12/23 04:07:10;;;;;;;39.38;23.13;;;;;;;;;;5053660;28;20064;-58
2021/12/23 04:09:36;;;;;;;45.00;21.90;;;;;;;;;;5052206;28;20056;-55
2021/12/23 04:12:01;;;;;;;43.42;24.52;;;;;;;;;;5055436;28;20068;-56
2021/12/23 04:14:27;;;;;;;42.05;22.70;;;;;;;;;;5052895;28;20037;-56
2021/12/23 04:16:53;;;;;;;43.30;22.00;;;;;;;;;;5052809;28;20114;-51
2021/12/23 04:19:19;;;;;;;44.97;23.58;;;;;;;;;;5053759;28;20075;-52
2021/12/23 04:21:44;;;;;;;44.83;23.77;;;;;;;;;;5052381;28;20061;-52
2021/12/23 04:24:10;;;;;;;40.30;22.95;;;;;;;;;;5055414;28;20072;-55
2021/12/23 04:26:37;;;;;;;44.03;23.80;;;;;;;;;;5053367;28;20444;-52
2021/12/23 04:29:04;;;;;;;44.13;22.92;;;;;;;;;;5050269;28;20033;-53
2021/12/23 04:31:31;;;;;;;39.28;22.52;;;;;;;;;;5051909;28;20041;-53
2021/12/23 04:33:56;;;;;;;41.15;23.73;;;;;;;;;;5051857;28;20202;-55
2021/12/23 04:36:27;;;;;;;39.95;22.95;;;;;;;;;;5052236;28;20478;-51
2021/12/23 04:38:53;;;;;;;40.53;23.00;;;;;;;;;;5053352;28;20036;-51
2021/12/23 04:41:18;;;;;;;44.15;23.50;;;;;;;;;;5049812;28;20582;-52
2021/12/23 04:43:44;;;;;;;47.83;24.27;;;;;;;;;;5053847;28;20057;-58
2021/12/23 04:46:10;;;;;;;43.67;23.15;;;;;;;;;;5049634;28;20533;-51
2021/12/23 04:48:37;;;;;;;44.70;22.45;;;;;;;;;;5051658;28;20124;-57
2021/12/23 04:51:03;;;;;;;40.08;22.88;;;;;;;;;;5054092;28;20036;-60
2021/12/23 04:53:29;;;;;;;43.90;23.33;;;;;;;;;;5051780;28;20144;-48
2021/12/23 04:55:55;;;;;;;41.83;22.38;;;;;;;;;;5053363;28;20313;-50
2021/12/23 04:58:21;;;;;;;45.92;24.20;;;;;;;;;;5047742;28;20539;-48
2021/12/23 05:00:49;;;;;;;45.25;23.40;;;;;;;;;;5055867;28;20512;-46
2021/12/23 05:03:16;;;;;;;44.72;24.00;;;;;;;;;;5052516;28;20071;-48
2021/12/23 05:05:41;;;;;;;42.47;23.95;;;;;;;;;;5052538;28;20124;-46
2021/12/23 05:08:07;;;;;;;46.28;24.00;;;;;;;;;;5053006;28;20067;-47
2021/12/23 05:10:33;;;;;;;41.40;24.20;;;;;;;;;;5052270;28;20040;-49
2021/12/23 05:12:59;;;;;;;44.47;24.27;;;;;;;;;;5056631;28;20603;-49
2021/12/23 05:15:25;;;;;;;46.88;24.27;;;;;;;;;;5055113;28;20123;-47
2021/12/23 05:17:51;;;;;;;44.92;23.70;;;;;;;;;;5049605;28;20040;-48
2021/12/23 05:20:18;;;;;;;41.40;23.15;;;;;;;;;;5049620;28;20041;-43
2021/12/23 05:22:44;;;;;;;38.00;21.63;;;;;;;;;;5044903;28;20468;-50
2021/12/23 05:25:10;;;;;;;43.05;22.88;;;;;;;;;;5052889;28;20063;-49
2021/12/23 05:27:36;;;;;;;42.47;23.15;;;;;;;;;;5052351;28;20045;-46
2021/12/23 05:30:02;;;;;;;44.97;25.17;;;;;;;;;;5052041;28;20144;-50
2021/12/23 05:32:28;;;;;;;42.83;23.08;;;;;;;;;;5051581;28;20065;-51
2021/12/23 05:34:54;;;;;;;44.50;24.38;;;;;;;;;;5052178;28;20048;-42
2021/12/23 05:37:19;;;;;;;48.95;25.48;;;;;;;;;;5052439;28;20072;-44
2021/12/23 05:39:45;;;;;;;43.90;23.80;;;;;;;;;;5051727;28;20459;-45
2021/12/23 05:42:11;;;;;;;44.95;23.02;;;;;;;;;;5051724;28;20051;-47
2021/12/23 05:44:36;;;;;;;40.05;22.65;;;;;;;;;;5056332;28;20063;-48
2021/12/23 05:47:03;;;;;;;47.15;23.40;;;;;;;;;;5055520;28;20644;-47
2021/12/23 05:49:28;;;;;;;41.95;22.25;;;;;;;;;;5055238;28;20413;-47
2021/12/23 05:51:54;;;;;;;41.25;21.75;;;;;;;;;;5058164;28;20039;-46
2021/12/23 05:54:20;;;;;;;39.72;22.30;;;;;;;;;;5055328;28;20122;-48
2021/12/23 05:56:45;;;;;;;41.45;22.90;;;;;;;;;;5056367;28;20083;-52
2021/12/23 05:59:11;;;;;;;36.00;21.05;;;;;;;;;;5055140;28;20060;-44
2021/12/23 06:01:37;;;;;;;38.65;22.25;;;;;;;;;;5055275;28;20136;-48
2021/12/23 06:04:03;;;;;;;38.80;22.63;;;;;;;;;;5057500;28;20036;-47
2021/12/23 06:06:29;;;;;;;38.80;22.20;;;;;;;;;;5053629;28;20120;-48
2021/12/23 06:08:54;;;;;;;40.53;20.92;;;;;;;;;;5057297;28;20110;-46
2021/12/23 06:11:20;;;;;;;41.42;21.95;;;;;;;;;;5052643;28;20057;-47
2021/12/23 06:13:46;;;;;;;37.50;20.90;;;;;;;;;;5056356;28;20571;-50
2021/12/23 06:16:11;;;;;;;38.50;21.95;;;;;;;;;;5055868;28;20072;-49
2021/12/23 06:18:37;;;;;;;43.67;21.50;;;;;;;;;;5051021;28;20850;-53
2021/12/23 06:21:03;;;;;;;35.90;20.90;;;;;;;;;;5057159;28;20045;-45
2021/12/23 06:23:30;;;;;;;37.65;21.13;;;;;;;;;;5056880;28;20044;-45
2021/12/23 06:25:56;;;;;;;35.17;20.30;;;;;;;;;;5056281;28;20571;-45
2021/12/23 06:28:22;;;;;;;41.88;21.02;;;;;;;;;;5052595;28;20045;-47
2021/12/23 06:30:48;;;;;;;37.30;21.20;;;;;;;;;;5053042;28;20122;-49
2021/12/23 06:33:13;;;;;;;42.70;22.05;;;;;;;;;;5056149;28;20033;-46
2021/12/23 06:35:39;;;;;;;38.10;21.25;;;;;;;;;;5054875;28;20048;-45
2021/12/23 06:38:07;;;;;;;38.35;20.58;;;;;;;;;;5057042;28;20044;-47
2021/12/23 06:40:33;;;;;;;39.42;21.17;;;;;;;;;;5055269;28;20040;-52
2021/12/23 06:42:59;;;;;;;39.88;21.27;;;;;;;;;;5056002;28;20056;-47
2021/12/23 06:45:25;;;;;;;39.80;21.88;;;;;;;;;;5054671;28;20033;-49
2021/12/23 06:47:50;;;;;;;36.42;20.42;;;;;;;;;;5055118;28;20037;-49
2021/12/23 06:50:18;;;;;;;36.90;19.83;;;;;;;;;;5056930;28;20037;-51
2021/12/23 06:52:44;;;;;;;36.30;19.67;;;;;;;;;;5056776;28;20061;-46
2021/12/23 06:55:11;;;;;;;37.75;20.27;;;;;;;;;;5051443;28;20041;-45
2021/12/23 06:57:38;;;;;;;43.83;22.73;;;;;;;;;;5052748;28;20664;-47
2021/12/23 07:00:06;;;;;;;38.13;21.95;;;;;;;;;;5053303;28;20043;-49
2021/12/23 07:02:34;;;;;;;35.25;20.63;;;;;;;;;;5056021;28;20091;-46
2021/12/23 07:05:00;;;;;;;39.00;20.50;;;;;;;;;;5055305;28;20086;-47
2021/12/23 07:07:27;;;;;;;38.38;20.63;;;;;;;;;;5053444;28;20457;-45
2021/12/23 07:09:54;;;;;;;38.47;19.48;;;;;;;;;;5055861;28;20131;-49
2021/12/23 07:12:20;;;;;;;40.40;20.05;;;;;;;;;;5052603;28;20040;-48
2021/12/23 07:14:45;;;;;;;35.67;20.58;;;;;;;;;;5051617;28;20064;-51
2021/12/23 07:17:11;;;;;;;39.92;21.70;;;;;;;;;;5054167;28;20456;-43
2021/12/23 07:19:37;;;;;;;35.55;20.73;;;;;;;;;;5053419;28;20705;-47
2021/12/23 07:22:03;;;;;;;39.30;20.50;;;;;;;;;;5056767;28;20117;-47
2021/12/23 07:24:29;;;;;;;36.22;21.77;;;;;;;;;;5052339;28;20110;-48
2021/12/23 07:26:55;;;;;;;38.72;20.45;;;;;;;;;;5054774;28;20051;-47
2021/12/23 07:29:21;;;;;;;34.05;20.42;;;;;;;;;;5052193;28;20579;-47
2021/12/23 07:31:47;;;;;;;32.75;19.10;;;;;;;;;;5053269;28;20037;-47
2021/12/23 07:34:13;;;;;;;37.83;20.05;;;;;;;;;;5051341;28;20646;-45
2021/12/23 07:36:39;;;;;;;34.50;20.00;;;;;;;;;;5047399;28;20040;-43
2021/12/23 07:39:07;;;;;;;36.47;20.23;;;;;;;;;;5051050;28;20731;-45
2021/12/23 07:41:32;;;;;;;37.28;19.55;;;;;;;;;;5052682;28;20044;-47
2021/12/23 07:43:59;;;;;;;35.50;19.88;;;;;;;;;;5053424;28;20085;-45
2021/12/23 07:46:29;;;;;;;33.75;18.52;;;;;;;;;;5053231;28;20057;-46
2021/12/23 07:48:56;;;;;;;33.58;19.65;;;;;;;;;;5051327;28;20510;-45
2021/12/23 07:51:22;;;;;;;37.90;19.30;;;;;;;;;;5054802;28;20051;-46
2021/12/23 07:53:48;;;;;;;34.13;17.90;;;;;;;;;;5053569;28;20450;-48
2021/12/23 07:56:14;;;;;;;40.03;19.75;;;;;;;;;;5053284;28;20033;-45
2021/12/23 07:58:40;;;;;;;34.08;18.70;;;;;;;;;;5049712;28;20082;-48
2021/12/23 08:01:05;;;;;;;33.50;19.20;;;;;;;;;;5052308;28;20051;-51
2021/12/23 08:03:31;;;;;;;34.25;19.23;;;;;;;;;;5051293;28;20076;-52
2021/12/23 08:05:57;;;;;;;32.83;18.05;;;;;;;;;;5055500;28;20134;-46
2021/12/23 08:08:23;;;;;;;32.83;19.13;;;;;;;;;;5052017;28;20098;-50
2021/12/23 08:10:50;;;;;;;34.85;18.95;;;;;;;;;;5055569;28;20045;-48
2021/12/23 08:13:16;;;;;;;34.30;18.00;;;;;;;;;;5053279;28;20081;-52
2021/12/23 08:15:41;;;;;;;31.33;19.00;;;;;;;;;;5053698;28;20571;-48
2021/12/23 08:18:07;;;;;;;37.30;20.52;;;;;;;;;;5052363;28;20123;-48
2021/12/23 08:20:33;;;;;;;36.50;18.88;;;;;;;;;;5052416;28;20134;-49
2021/12/23 08:22:59;;;;;;;31.15;18.85;;;;;;;;;;5055708;28;20535;-45
2021/12/23 08:25:24;;;;;;;37.70;18.02;;;;;;;;;;5052825;28;20109;-46
2021/12/23 08:27:50;;;;;;;36.80;19.60;;;;;;;;;;5054161;28;20063;-50
2021/12/23 08:30:18;;;;;;;31.75;19.13;;;;;;;;;;5054479;28;20032;-51
2021/12/23 08:32:44;;;;;;;35.78;19.48;;;;;;;;;;5050329;28;20763;-51
2021/12/23 08:35:11;;;;;;;36.33;19.27;;;;;;;;;;5050321;28;20037;-48
2021/12/23 08:37:41;;;;;;;36.88;19.55;;;;;;;;;;5051105;28;20045;-52
2021/12/23 08:40:08;;;;;;;29.42;17.42;;;;;;;;;;5052805;28;20118;-53
2021/12/23 08:42:34;;;;;;;34.42;18.30;;;;;;;;;;5054491;28;20076;-48
2021/12/23 08:45:03;;;;;;;32.92;18.23;;;;;;;;;;5050426;28;20062;-45
2021/12/23 08:47:28;;;;;;;35.35;19.33;;;;;;;;;;5049909;28;20145;-50
2021/12/23 08:49:54;;;;;;;38.33;19.30;;;;;;;;;;5048925;28;20534;-47
2021/12/23 08:52:20;;;;;;;32.22;16.77;;;;;;;;;;5051450;28;20100;-50
2021/12/23 08:54:46;;;;;;;31.48;17.92;;;;;;;;;;5051650;28;20033;-50
2021/12/23 08:57:11;;;;;;;32.15;17.67;;;;;;;;;;5054292;28;20140;-49
2021/12/23 08:59:37;;;;;;;34.63;18.08;;;;;;;;;;5052881;28;20099;-47
2021/12/23 09:02:04;;;;;;;33.33;17.90;;;;;;;;;;5052657;28;20036;-51
2021/12/23 09:04:30;;;;;;;34.08;18.77;;;;;;;;;;5052001;28;20102;-45
2021/12/23 09:06:55;;;;;;;33.45;19.27;;;;;;;;;;5051609;28;20524;-44
2021/12/23 09:09:23;;;;;;;34.22;20.05;;;;;;;;;;5051467;28;20458;-47
2021/12/23 09:11:49;;;;;;;33.10;17.95;;;;;;;;;;5054621;28;20874;-49
2021/12/23 09:14:15;;;;;;;32.53;17.58;;;;;;;;;;5049532;28;20104;-49
2021/12/23 09:16:40;;;;;;;34.47;19.13;;;;;;;;;;5050879;28;20155;-50
2021/12/23 09:19:06;;;;;;;34.75;18.40;;;;;;;;;;5044984;28;20627;-47
2021/12/23 09:21:32;;;;;;;35.88;18.30;;;;;;;;;;5051673;28;20065;-49
2021/12/23 09:23:58;;;;;;;36.83;19.98;;;;;;;;;;5051417;28;20088;-51
2021/12/23 09:26:24;;;;;;;33.88;18.73;;;;;;;;;;5052842;28;20048;-50
2021/12/23 09:29:04;;;;;;;31.48;19.08;;;;;;;;;;5051683;28;20491;-46
2021/12/23 09:34:14;;;;;;;31.30;18.95;;;;;;;;;;5052495;28;20043;-52
2021/12/23 09:36:40;;;;;;;32.42;17.83;;;;;;;;;;5052711;28;20136;-44
2021/12/23 09:39:09;;;;;;;31.33;18.17;;;;;;;;;;5052257;28;20040;-49
2021/12/23 09:41:38;;;;;;;33.42;18.48;;;;;;;;;;5052161;28;20385;-48
2021/12/23 09:44:05;;;;;;;34.75;19.05;;;;;;;;;;5052363;28;20447;-47
2021/12/23 09:46:31;;;;;;;32.45;18.40;;;;;;;;;;5048266;28;20148;-53
2021/12/23 09:48:58;;;;;;;35.75;18.90;;;;;;;;;;5051491;28;20061;-49
2021/12/23 09:51:24;;;;;;;36.78;20.55;;;;;;;;;;5050067;28;20048;-47
2021/12/23 09:53:58;;;;;;;36.78;19.15;;;;;;;;;;5046368;28;20029;-46
2021/12/23 09:56:26;;;;;;;37.97;19.83;;;;;;;;;;5048237;28;20081;-46
2021/12/23 09:58:52;;;;;;;32.22;18.70;;;;;;;;;;5053441;28;20034;-49
2021/12/23 10:01:18;;;;;;;35.50;19.70;;;;;;;;;;5052373;28;20591;-46
2021/12/23 10:03:44;;;;;;;32.28;17.77;;;;;;;;;;5051018;28;20096;-45
2021/12/23 10:06:10;;;;;;;34.75;18.88;;;;;;;;;;5056931;28;20044;-46
2021/12/23 10:08:39;;;;;;;34.58;18.55;;;;;;;;;;5048601;28;20072;-46
2021/12/23 10:33:26;;;;;;;33.83;17.35;;;;;;;;;;5052754;28;20041;-50
2021/12/23 10:38:40;;;;;;;33.58;18.52;;;;;;;;;;5053712;28;20123;-46
2021/12/23 10:41:13;;;;;;;34.88;19.17;;;;;;;;;;5055097;28;20135;-51
2021/12/23 10:43:42;;;;;;;35.88;18.85;;;;;;;;;;5059482;28;20037;-46
2021/12/23 10:46:20;;;;;;;35.90;18.00;;;;;;;;;;5055641;28;20036;-44
2021/12/23 10:48:51;;;;;;;30.38;18.10;;;;;;;;;;5054657;28;20095;-54
2021/12/23 10:51:19;;;;;;;31.85;18.00;;;;;;;;;;5055786;28;20061;-47
2021/12/23 10:54:17;;;;;;;29.08;17.60;;;;;;;;;;5055614;28;20094;-51
2021/12/23 10:59:30;;;;;;;30.48;17.35;;;;;;;;;;5057578;28;20044;-49
2021/12/23 11:02:24;;;;;;;33.67;18.30;;;;;;;;;;5057167;28;20537;-44
2021/12/23 11:05:30;;;;;;;30.02;16.55;;;;;;;;;;5054185;28;20198;-47
2021/12/23 11:08:04;;;;;;;28.80;17.23;;;;;;;;;;5053719;28;20045;-46
2021/12/23 11:38:19;;;;;;;27.08;15.15;;;;;;;;;;5057426;28;20040;-49
2021/12/23 11:45:46;;;;;;;30.75;16.52;;;;;;;;;;5056164;28;20037;-43
2021/12/23 11:48:13;;;;;;;27.83;15.75;;;;;;;;;;5053141;28;20446;-51
2021/12/23 11:50:53;;;;;;;28.65;15.80;;;;;;;;;;5056142;28;20048;-48
2021/12/23 11:53:21;;;;;;;25.63;15.60;;;;;;;;;;5054232;28;20586;-44
2021/12/23 11:55:47;;;;;;;27.80;15.75;;;;;;;;;;5058237;28;20057;-45
2021/12/23 11:58:14;;;;;;;25.35;15.30;;;;;;;;;;5047276;28;20062;-46
2021/12/23 12:00:44;;;;;;;29.67;17.17;;;;;;;;;;5052464;28;20054;-44
2021/12/23 12:03:12;;;;;;;26.13;15.10;;;;;;;;;;5072816;28;20040;-46
2021/12/23 12:05:38;;;;;;;28.10;16.15;;;;;;;;;;5058561;28;20050;-52
2021/12/23 12:08:09;;;;;;;26.02;15.25;;;;;;;;;;5058435;28;20044;-48
2021/12/23 12:10:36;;;;;;;27.05;15.40;;;;;;;;;;5053227;28;20095;-44
2021/12/23 12:13:09;;;;;;;24.38;15.32;;;;;;;;;;5053714;28;20040;-48
2021/12/23 12:15:47;;;;;;;24.35;14.95;;;;;;;;;;5054572;28;20041;-45
2021/12/23 12:18:18;;;;;;;30.55;15.85;;;;;;;;;;5053414;28;20036;-47
2021/12/23 12:20:48;;;;;;;25.95;15.60;;;;;;;;;;5053599;28;20040;-49
2021/12/23 12:23:31;;;;;;;24.85;14.80;;;;;;;;;;5050774;28;20063;-48
2021/12/23 12:26:09;;;;;;;22.58;14.90;;;;;;;;;;5055316;28;20033;-48
2021/12/23 12:28:46;;;;;;;25.85;14.50;;;;;;;;;;5052177;28;20060;-42
2021/12/23 12:31:18;;;;;;;22.70;14.18;;;;;;;;;;5052575;28;20123;-48
2021/12/23 12:33:52;;;;;;;28.30;16.10;;;;;;;;;;5052191;28;20059;-48
2021/12/23 12:36:19;;;;;;;26.75;15.77;;;;;;;;;;5053147;28;20033;-46
2021/12/23 12:38:51;;;;;;;27.05;16.38;;;;;;;;;;5050934;28;20116;-47
2021/12/23 12:41:27;;;;;;;24.35;14.65;;;;;;;;;;5052723;28;20040;-47
2021/12/23 12:44:01;;;;;;;25.45;14.90;;;;;;;;;;5055519;28;20068;-46
2021/12/23 12:46:35;;;;;;;27.35;15.80;;;;;;;;;;5052644;28;20791;-51
2021/12/23 12:49:08;;;;;;;28.92;15.68;;;;;;;;;;5053100;28;20766;-44
2021/12/23 12:51:39;;;;;;;26.70;15.18;;;;;;;;;;5052539;28;20040;-50
2021/12/23 12:54:08;;;;;;;29.70;16.35;;;;;;;;;;5054844;28;20028;-50
2021/12/23 12:56:44;;;;;;;26.38;16.50;;;;;;;;;;5054082;28;20526;-49
2021/12/23 12:59:10;;;;;;;26.40;15.32;;;;;;;;;;5050342;28;20056;-47
2021/12/23 13:01:47;;;;;;;26.77;15.13;;;;;;;;;;5050766;28;20053;-46
2021/12/23 13:04:41;;;;;;;29.55;14.93;;;;;;;;;;5054276;28;20076;-46
2021/12/23 13:07:29;;;;;;;26.95;14.70;;;;;;;;;;5050589;28;20041;-47
2021/12/23 13:10:05;;;;;;;27.80;15.95;;;;;;;;;;5045635;28;20055;-49
2021/12/23 13:12:48;;;;;;;29.08;17.58;;;;;;;;;;5051374;28;20420;-47
2021/12/23 13:15:36;;;;;;;25.33;15.98;;;;;;;;;;5052289;28;20056;-50
2021/12/23 13:18:07;;;;;;;27.45;16.10;;;;;;;;;;5052063;28;20821;-45
2021/12/23 13:20:40;;;;;;;24.42;15.18;;;;;;;;;;5050492;28;20094;-49
2021/12/23 13:23:12;;;;;;;27.55;16.25;;;;;;;;;;5052089;28;20548;-46
2021/12/23 13:25:56;;;;;;;29.13;16.50;;;;;;;;;;5052035;28;20045;-48
2021/12/23 13:28:51;;;;;;;29.92;17.67;;;;;;;;;;5039841;28;20044;-51
2021/12/23 13:31:19;;;;;;;27.58;16.98;;;;;;;;;;5052600;28;20044;-47
2021/12/23 13:33:50;;;;;;;32.15;18.92;;;;;;;;;;5051854;28;20170;-49
2021/12/23 13:36:28;;;;;;;37.55;20.70;;;;;;;;;;5053256;28;20040;-50
2021/12/23 13:38:57;;;;;;;27.17;16.40;;;;;;;;;;5054598;28;20082;-48
2021/12/23 13:41:30;;;;;;;27.70;16.48;;;;;;;;;;5048408;28;20045;-46
2021/12/23 13:44:03;;;;;;;30.73;19.35;;;;;;;;;;5054378;28;20120;-49
2021/12/23 13:46:32;;;;;;;36.50;20.23;;;;;;;;;;5049648;28;20381;-47
2021/12/23 13:49:02;;;;;;;30.23;19.35;;;;;;;;;;5053816;28;20036;-49
2021/12/23 13:51:31;;;;;;;26.38;16.45;;;;;;;;;;5049622;28;20044;-50
2021/12/23 13:54:13;;;;;;;29.00;17.75;;;;;;;;;;5053637;28;20044;-46
2021/12/23 13:56:42;;;;;;;30.95;19.13;;;;;;;;;;5052377;28;20041;-47
2021/12/23 13:59:10;;;;;;;40.65;22.83;;;;;;;;;;5051418;28;20113;-45
2021/12/23 14:01:50;;;;;;;34.63;21.02;;;;;;;;;;5052646;28;20041;-52
2021/12/23 14:04:36;;;;;;;28.25;17.67;;;;;;;;;;5053771;28;20098;-48
2021/12/23 14:07:07;;;;;;;25.80;16.98;;;;;;;;;;5057712;28;20693;-47
2021/12/23 14:09:34;;;;;;;26.73;17.00;;;;;;;;;;5054234;28;20067;-53
2021/12/23 14:12:01;;;;;;;36.65;20.10;;;;;;;;;;5054239;28;20116;-49
2021/12/23 14:14:27;;;;;;;30.63;18.42;;;;;;;;;;5054146;28;20320;-48
2021/12/23 14:16:52;;;;;;;24.67;15.27;;;;;;;;;;5055308;28;20037;-48
2021/12/23 14:19:29;;;;;;;25.50;16.20;;;;;;;;;;5054771;28;20464;-48
2021/12/23 14:24:42;;;;;;;22.55;14.93;;;;;;;;;;5056700;28;20052;-53
2021/12/23 14:27:08;;;;;;;25.08;16.02;;;;;;;;;;5056066;28;20490;-49
2021/12/23 14:29:35;;;;;;;26.33;15.73;;;;;;;;;;5055201;28;20039;-51
2021/12/23 14:32:01;;;;;;;22.23;14.05;;;;;;;;;;5057200;28;20185;-51
2021/12/23 14:34:28;;;;;;;26.10;15.52;;;;;;;;;;5055024;28;20045;-51
2021/12/23 14:36:56;;;;;;;23.92;15.73;;;;;;;;;;5054599;28;20040;-47
2021/12/23 14:39:27;;;;;;;25.48;15.88;;;;;;;;;;5048316;28;20045;-47
2021/12/23 14:42:07;;;;;;;24.88;16.40;;;;;;;;;;5055950;28;20041;-47
2021/12/23 14:44:37;;;;;;;21.55;15.27;;;;;;;;;;5055220;28;20147;-52
2021/12/23 14:47:24;;;;;;;26.42;15.88;;;;;;;;;;5054967;28;20152;-49
2021/12/23 14:50:17;;;;;;;23.98;15.25;;;;;;;;;;5055847;28;20041;-48
2021/12/23 14:52:52;;;;;;;21.45;14.32;;;;;;;;;;5048499;28;20139;-44
2021/12/23 14:55:23;;;;;;;25.75;15.25;;;;;;;;;;5059733;28;20040;-51
2021/12/23 14:57:55;;;;;;;25.35;14.90;;;;;;;;;;5056769;28;20720;-48
2021/12/23 15:00:36;;;;;;;25.60;16.85;;;;;;;;;;5054125;28;20062;-51
2021/12/23 15:03:07;;;;;;;23.73;15.80;;;;;;;;;;5055664;28;20032;-48
2021/12/23 15:05:34;;;;;;;22.88;15.48;;;;;;;;;;5054378;28;20170;-46
2021/12/23 15:08:06;;;;;;;26.92;16.38;;;;;;;;;;5056323;28;20123;-45
2021/12/23 15:10:36;;;;;;;24.33;14.75;;;;;;;;;;5053847;28;20395;-49
2021/12/23 15:13:14;;;;;;;23.70;14.50;;;;;;;;;;5056945;28;20040;-47
2021/12/23 15:15:40;;;;;;;21.33;15.10;;;;;;;;;;5067070;28;20102;-50
2021/12/23 15:18:14;;;;;;;25.38;15.40;;;;;;;;;;5053055;28;20037;-52
2021/12/23 15:20:48;;;;;;;24.33;16.30;;;;;;;;;;5055418;28;20041;-50
2021/12/23 15:23:14;;;;;;;23.33;15.35;;;;;;;;;;5054349;28;20024;-50
2021/12/23 15:25:41;;;;;;;22.10;14.05;;;;;;;;;;5054154;28;20040;-45
2021/12/23 15:28:08;;;;;;;26.45;15.82;;;;;;;;;;5054850;28;20039;-48
2021/12/23 15:30:34;;;;;;;25.67;15.25;;;;;;;;;;5053218;28;20049;-45
2021/12/23 15:33:07;;;;;;;23.15;15.40;;;;;;;;;;5056258;28;20110;-50
2021/12/23 15:35:35;;;;;;;30.85;16.55;;;;;;;;;;5053665;28;20043;-46
2021/12/23 15:38:03;;;;;;;27.00;16.50;;;;;;;;;;5056186;28;20040;-45